Texas Logo

Katy, TX Single Family Real Estate Listings

2210 Total Real Estate Listings * Click on table heading to sort
Date Posted Property Type Style Address Price Living Area Lot Size Price/Sq Ft.
2018-11-21 Single Family Traditional 906 Owl Landing Drive Katy, TX 77494 $1,900 2,697 sq. ft. 5,227 sq. ft. $1
2018-11-21 Single Family Traditional 6123 Carver Pines Drive Katy, TX 77494 $230,000 2,020 sq. ft. 4,792 sq. ft. $114
2018-11-20 Single Family Traditional 2311 Goodwin Drive Katy, TX 77493 $150,000 1,237 sq. ft. 6,098 sq. ft. $121
2018-11-20 Single Family Traditional 24803 Blane Katy, TX 77493 $270,000 2,674 sq. ft. 6,970 sq. ft. $101
2018-11-20 Single Family Traditional 6706 Enchanted Crest Drive Katy, TX 77449 $210,000 2,382 sq. ft. 5,663 sq. ft. $88
2018-11-20 Single Family Traditional 21315 Highland Knolls Drive Katy, TX 77450 $138,000 1,740 sq. ft. 7,405 sq. ft. $79
2018-11-20 Single Family Traditional 29819 Waverly Park Lane Katy, TX 77494 $394,990 3,246 sq. ft. 8,276 sq. ft. $122
2018-11-20 Single Family Traditional 1906 Kingston Meadow Lane Katy, TX 77494 $326,990 2,309 sq. ft. 9,583 sq. ft. $142
2018-11-20 Single Family Traditional 2903 Coastal Prairie Lane Katy, TX 77493 $289,000 3,352 sq. ft. 7,841 sq. ft. $86
2018-11-20 Single Family Traditional 23822 River Place Drive Katy, TX 77494 $230,000 1,694 sq. ft. 6,098 sq. ft. $136
2018-11-20 Single Family Traditional 28214 Firethorne Road Katy, TX 77494 $519,000 4,115 sq. ft. 15,682 sq. ft. $126
2018-11-20 Single Family Traditional 20127 Black Canyon Drive Katy, TX 77450 $295,000 2,745 sq. ft. 6,534 sq. ft. $107
2018-11-20 Single Family Traditional 547 Everington Drive Katy, TX 77450 $284,500 2,637 sq. ft. 7,405 sq. ft. $108
2018-11-20 Single Family Traditional 3706 Ember Falls Lane Katy, TX 77449 $228,900 2,088 sq. ft. 6,098 sq. ft. $110
2018-11-20 Single Family Traditional 19623 River Pointe Lane Katy, TX 77449 $200,000 2,375 sq. ft. 5,663 sq. ft. $84
2018-11-20 Single Family Traditional 19743 Oakland Valley Drive Katy, TX 77449 $130,000 1,451 sq. ft. 6,098 sq. ft. $90
2018-11-20 Single Family Contemporary/Modern 18926 Grant Sequoia Lane Lane Katy, TX 77449 $235,500 2,764 sq. ft. 5,663 sq. ft. $85
2018-11-20 Single Family Contemporary/Modern 20029 Fort Stanton Drive Katy, TX 77449 $153,000 1,049 sq. ft. 4,792 sq. ft. $146
2018-11-19 Single Family Traditional 21027 Carmel Valley Drive Katy, TX 77449 $180,000 1,600 sq. ft. 6,534 sq. ft. $112
2018-11-19 Single Family Traditional 21311 Park Willow Drive Katy, TX 77450 $237,400 2,280 sq. ft. 7,841 sq. ft. $104
2018-11-19 Single Family Traditional 3822 Moreland Branch Lane Katy, TX 77493 $325,000 2,739 sq. ft. 8,276 sq. ft. $119
2018-11-19 Single Family Traditional 23610 Darling Creek Lane Katy, TX 77493 $448,749 3,036 sq. ft. $148
2018-11-19 Single Family Traditional 25306 Overbrook Terrace Lane Katy, TX 77494 $319,990 3,233 sq. ft. 7,405 sq. ft. $99
2018-11-19 Single Family Traditional 28126 Round Moon Lane Katy, TX 77494 $365,000 3,815 sq. ft. 9,148 sq. ft. $96
2018-11-19 Single Family Traditional 28707 Forest Pass Katy, TX 77494 $304,097 2,445 sq. ft. $124
2018-11-19 Single Family Colonial 20615 Prince Creek Drive Katy, TX 77450 $363,000 2,942 sq. ft. 7,405 sq. ft. $123
2018-11-19 Single Family Traditional 23915 Hamptonshire Lane Katy, TX 77494 $367,500 2,642 sq. ft. 7,841 sq. ft. $139
2018-11-19 Single Family Contemporary/Modern 6319 Faulkner Ridge Drive Katy, TX 77450 $270,000 2,522 sq. ft. 6,534 sq. ft. $107
2018-11-19 Single Family Traditional 20723 Waterfall Rain Court Katy, TX 77449 $219,500 1,822 sq. ft. 8,712 sq. ft. $120
2018-11-19 Single Family Traditional 23910 Rottino Drive Katy, TX 77493 $233,121 2,279 sq. ft. $102
2018-11-19 Single Family Traditional 26803 Grey Peregrine Drive Katy, TX 77494 $357,000 3,599 sq. ft. 10,019 sq. ft. $99
2018-11-19 Single Family Traditional 5306 Gerent Lane Katy, TX 77493 $286,340 2,620 sq. ft. 7,405 sq. ft. $109
2018-11-19 Single Family Traditional 3015 Upland Spring Trace Katy, TX 77493 $225,000 2,460 sq. ft. 4,792 sq. ft. $91
2018-11-19 Single Family Traditional 6239 Pebble Canyon Court Katy, TX 77450 $249,900 2,380 sq. ft. 7,841 sq. ft. $105
2018-11-19 Single Family Traditional 20706 Cypress Rain Drive Katy, TX 77449 $219,000 2,121 sq. ft. 8,712 sq. ft. $103
2018-11-19 Single Family Traditional 24614 Forest Canopy Drive Katy, TX 77493 $235,000 2,066 sq. ft. 7,841 sq. ft. $114
2018-11-18 Single Family Traditional 1950 Myrna Lane Katy, TX 77493 $199,999 1,547 sq. ft. 6,534 sq. ft. $129
2018-11-18 Single Family Traditional 28711 Primrose Bluff Drive Katy, TX 77494 $415,000 3,170 sq. ft. 7,405 sq. ft. $131
2018-11-18 Single Family Traditional 28711 Forest Pass Lane Katy, TX 77494 $346,990 3,311 sq. ft. 8,712 sq. ft. $105
2018-11-18 Single Family Traditional 3222 Tall Sycamore Trail Trail Katy, TX 77493 $328,500 3,761 sq. ft. 6,098 sq. ft. $87
2018-11-18 Single Family Traditional 28907 Golden Spike Court Katy, TX 77494 $327,990 2,941 sq. ft. $112
2018-11-18 Single Family Traditional 20911 Field Manor Lane Katy, TX 77450 $300,000 2,914 sq. ft. 8,276 sq. ft. $103
2018-11-18 Single Family Traditional 4819 Cottage Stone Lane Katy, TX 77449 $178,000 1,703 sq. ft. 6,534 sq. ft. $105
2018-11-18 Single Family Traditional 6122 Coastal Grove Lane Katy, TX 77494 $353,230 3,969 sq. ft. 6,098 sq. ft. $89
2018-11-18 Single Family Traditional 3110 Francisco Bay Place Katy, TX 77494 $268,990 2,217 sq. ft. 6,970 sq. ft. $121
2018-11-18 Single Family Traditional 28722 Forest Pass Lane Katy, TX 77494 $289,990 2,545 sq. ft. 7,405 sq. ft. $114
2018-11-18 Single Family Traditional 22606 Unicorns Horn Lane Katy, TX 77449 $250,000 2,879 sq. ft. 10,454 sq. ft. $87
2018-11-17 Single Family Traditional 20303 Brondesbury Drive Katy, TX 77450 $264,500 2,161 sq. ft. 7,405 sq. ft. $122
2018-11-17 Single Family Ranch 5721 Village Park Drive Katy, TX 77493 $151,000 1,705 sq. ft. 6,534 sq. ft. $89
2018-11-17 Single Family Traditional 20511 Autumn Terrace Lane Katy, TX 77450 $348,500 2,928 sq. ft. 8,276 sq. ft. $119
2018-11-17 Single Family Traditional 21323 Park Downe Lane Katy, TX 77450 $139,000 1,974 sq. ft. 7,841 sq. ft. $70
2018-11-17 Single Family Traditional 2318 Trotter Drive Katy, TX 77493 $224,995 2,090 sq. ft. 6,098 sq. ft. $108
2018-11-17 Single Family Traditional 25518 Cranes Creek Court Katy, TX 77494 $270,000 2,300 sq. ft. 8,276 sq. ft. $117
2018-11-17 Single Family Ranch; Traditional 4903 Augusta Pointe Court Katy, TX 77494 $285,000 1,737 sq. ft. 6,534 sq. ft. $164
2018-11-17 Single Family Traditional 5614 Village Arbour Drive Drive Katy, TX 77493 $194,000 1,719 sq. ft. 6,534 sq. ft. $113
2018-11-17 Single Family Traditional 19823 Whispering Hollow Lane Katy, TX 77449 $220,000 2,152 sq. ft. 5,227 sq. ft. $102
2018-11-17 Single Family Ranch; Split Level; Traditional 5946 Green Meadows Lane Katy, TX 77493 $410,000 3,531 sq. ft. 11,761 sq. ft. $116
2018-11-17 Single Family Traditional 2918 Copper Cliff Drive Katy, TX 77449 $185,000 1,902 sq. ft. 4,356 sq. ft. $97
2018-11-17 Single Family Traditional 20507 Gable Ridge Drive Katy, TX 77450 $369,900 2,934 sq. ft. 8,276 sq. ft. $126
2018-11-16 Single Family Traditional 3106 Latrobe Lane Katy, TX 77450 $424,000 4,373 sq. ft. 15,246 sq. ft. $97
2018-11-16 Single Family Traditional 22803 Tara Way Drive Katy, TX 77449 $175,000 1,706 sq. ft. 6,098 sq. ft. $103
2018-11-16 Single Family Traditional 1819 Orchard Berry Lane Katy, TX 77494 $285,390 2,393 sq. ft. $119
2018-11-16 Single Family Traditional 1523 Park Wind Drive Katy, TX 77450 $218,000 1,936 sq. ft. 14,810 sq. ft. $113
2018-11-16 Single Family Traditional 18319 Autumn Trails Lane Katy, TX 77449 $165,000 1,580 sq. ft. 5,663 sq. ft. $104
2018-11-16 Single Family Traditional 6223 Summerfield Glade Lane Katy, TX 77494 $288,000 2,607 sq. ft. 6,098 sq. ft. $110
2018-11-16 Single Family Traditional 22911 Benbury Dr Katy, TX 77450 $237,900 2,318 sq. ft. 8,276 sq. ft. $103
2018-11-16 Single Family Traditional 1045 Texas Timbers Drive Katy, TX 77493 $174,900 1,366 sq. ft. $128
2018-11-16 Single Family Traditional 1057 Texas Timbers Drive Katy, TX 77493 $174,900 1,366 sq. ft. $128
2018-11-16 Single Family Traditional 1038 Texas Timbers Drive Katy, TX 77493 $174,900 1,366 sq. ft. $128
2018-11-16 Single Family Traditional 19911 Sky Hollow Lane Katy, TX 77450 $399,900 3,308 sq. ft. 10,890 sq. ft. $121
2018-11-16 Single Family Traditional 1723 Cornerstone Place Drive Katy, TX 77450 $322,900 2,328 sq. ft. 9,583 sq. ft. $139
2018-11-16 Single Family Ranch; Traditional 29038 Endeavor River Drive Katy, TX 77494 $326,990 2,713 sq. ft. $121
2018-11-16 Single Family Ranch; Traditional 29006 Endeavor River Drive Katy, TX 77494 $326,990 2,564 sq. ft. $128
2018-11-16 Single Family Ranch; Traditional 24746 Heirloom Lane Lane Katy, TX 77493 $253,575 2,205 sq. ft. 9,148 sq. ft. $115
2018-11-16 Single Family Traditional 3707 Huntland Court Katy, TX 77450 $399,900 3,076 sq. ft. 6,970 sq. ft. $130
2018-11-16 Single Family Traditional 5726 Brennan Ridge Lane Katy, TX 77450 $454,000 3,782 sq. ft. 9,583 sq. ft. $120
2018-11-16 Single Family Traditional 6419 Middlelake Ct Katy, TX 77450 $328,900 3,000 sq. ft. 7,405 sq. ft. $110
2018-11-16 Single Family Ranch; Traditional 2122 Grandmill Lane Katy, TX 77494 $339,000 2,856 sq. ft. 9,583 sq. ft. $119
2018-11-16 Single Family Contemporary/Modern 26030 Galena Stone Lane Katy, TX 77494 $367,000 3,094 sq. ft. 7,841 sq. ft. $119
2018-11-16 Single Family Traditional 4706 Camden Brook Lane Katy, TX 77494 $279,000 2,911 sq. ft. 6,970 sq. ft. $96
2018-11-16 Single Family Contemporary/Modern 3535 Bright Moon Court Katy, TX 77449 $214,990 2,304 sq. ft. $93
2018-11-16 Single Family Traditional 4335 Hawk Meadow Drive Katy, TX 77449 $156,553 1,156 sq. ft. 4,792 sq. ft. $135
2018-11-16 Single Family Traditional 21014 Castle Gardens Ct Gardens Katy, TX 77449 $187,000 2,016 sq. ft. 8,276 sq. ft. $93
2018-11-16 Single Family Traditional 1683 Kelliwood Oaks Drive Katy, TX 77450 $625,000 4,850 sq. ft. 13,939 sq. ft. $129
2018-11-16 Single Family Traditional 25911 Hunter Lane Katy, TX 77494 $400,000 2,308 sq. ft. 43,560 sq. ft. $173
2018-11-16 Single Family Traditional 10314 Radcliff Lake Drive Katy, TX 77494 $499,900 4,307 sq. ft. 10,019 sq. ft. $116
2018-11-16 Single Family Traditional 21107 Park Villa Drive Katy, TX 77450 $264,900 3,020 sq. ft. 8,712 sq. ft. $88
2018-11-16 Single Family Ranch 5406 Summit Lodge Drive Katy, TX 77449 $212,000 2,313 sq. ft. 6,970 sq. ft. $92
2018-11-16 Single Family Traditional 24619 Lakecrest Bend Drive Katy, TX 77493 $222,000 2,131 sq. ft. 5,663 sq. ft. $104
2018-11-16 Single Family Traditional 2110 Wild Dunes Circle Katy, TX 77450 $645,000 4,392 sq. ft. 11,326 sq. ft. $147
2018-11-16 Single Family Traditional 6315 Piedra Negras Court Katy, TX 77450 $335,000 3,450 sq. ft. 7,405 sq. ft. $97
2018-11-16 Single Family Traditional 623 Long Prairie Drive Katy, TX 77450 $265,000 2,886 sq. ft. 6,970 sq. ft. $92
2018-11-16 Single Family Traditional 20507 Park Pine Drive Katy, TX 77450 $369,000 3,758 sq. ft. 8,276 sq. ft. $98
2018-11-16 Single Family Traditional 6019 Boyden Knoll Drive Katy, TX 77494 $270,000 2,179 sq. ft. 8,712 sq. ft. $124
2018-11-16 Single Family Traditional 21323 Park York Drive Katy, TX 77450 $194,900 2,109 sq. ft. 7,841 sq. ft. $92
2018-11-15 Single Family French; Traditional 514 Walworten Court Katy, TX 77450 $393,000 3,277 sq. ft. 8,276 sq. ft. $120
2018-11-15 Single Family Traditional 27814 Norfolk Trail Lane Katy, TX 77494 $625,000 4,434 sq. ft. 13,504 sq. ft. $141
2018-11-15 Single Family Traditional 26226 Grace Hills Lane Katy, TX 77494 $405,000 3,934 sq. ft. 7,841 sq. ft. $103
2018-11-15 Single Family Traditional 2023 Briarchester Drive Katy, TX 77450 $525,000 3,567 sq. ft. 14,810 sq. ft. $147
2018-11-15 Single Family Ranch 3614 Wildhawk Drive Katy, TX 77449 $180,000 1,835 sq. ft. 6,098 sq. ft. $98
2018-11-15 Single Family Traditional 3322 Mallard Run Court Katy, TX 77494 $710,000 4,956 sq. ft. 15,682 sq. ft. $143
2018-11-15 Single Family Traditional 1622 Dominion Heights Lane Katy, TX 77494 $311,900 2,389 sq. ft. 6,970 sq. ft. $131
2018-11-15 Single Family Traditional 29510 Enchanted Breeze Lane Katy, TX 77494 $313,990 2,786 sq. ft. 9,148 sq. ft. $113
2018-11-15 Single Family Traditional 1510 Pacific Grove Lane Katy, TX 77494 $369,900 3,354 sq. ft. 7,405 sq. ft. $110
2018-11-15 Single Family Traditional 24626 Kingston Hill Lane Katy, TX 77494 $240,000 2,165 sq. ft. 6,970 sq. ft. $111
2018-11-15 Single Family Traditional 19731 Byron Meadows Drive Katy, TX 77449 $170,000 1,408 sq. ft. 5,227 sq. ft. $121
2018-11-15 Single Family Traditional 29514 Barker Meadow Lane Katy, TX 77494 $302,990 2,150 sq. ft. 7,841 sq. ft. $141
2018-11-15 Single Family Traditional 5515 Terrace Gable Circle Katy, TX 77494 $347,700 3,015 sq. ft. 9,148 sq. ft. $115
2018-11-15 Single Family Traditional 29826 Bellous River Lane Katy, TX 77494 $266,900 2,144 sq. ft. 7,841 sq. ft. $124
2018-11-15 Single Family Traditional 2646 Marquette Trail Katy, TX 77494 $289,500 2,927 sq. ft. 6,970 sq. ft. $99
2018-11-15 Single Family Traditional 5323 Royal Press Drive Katy, TX 77493 $210,000 1,695 sq. ft. 5,227 sq. ft. $124
2018-11-15 Single Family Contemporary/Modern 24506 Royal Pike Drive Katy, TX 77493 $249,000 1,783 sq. ft. 5,663 sq. ft. $140
2018-11-15 Single Family Ranch; Traditional 4023 Prairie Landing Street Katy, TX 77494 $265,970 1,868 sq. ft. $142
2018-11-15 Single Family Traditional 19742 Cozy Cabbin Drive Katy, TX 77449 $199,900 2,147 sq. ft. 5,227 sq. ft. $93
2018-11-15 Single Family Traditional 22019 Lodge Stone Court Katy, TX 77450 $524,900 3,429 sq. ft. 10,890 sq. ft. $153
2018-11-15 Single Family Traditional 3310 Beachwater Drive Katy, TX 77450 $425,000 3,111 sq. ft. 8,712 sq. ft. $137
2018-11-15 Single Family Traditional 2014 Garden Terrace Drive Katy, TX 77494 $374,900 2,971 sq. ft. $126
2018-11-15 Single Family Traditional 24402 Dartford Springs Lane Katy, TX 77494 $240,000 1,742 sq. ft. 9,583 sq. ft. $138
2018-11-15 Single Family Traditional 6120 Lone Prairie Way Katy, TX 77449 $145,000 1,204 sq. ft. 2,614 sq. ft. $120
2018-11-14 Single Family Traditional 2605 Carson Drive Katy, TX 77493 $205,000 1,752 sq. ft. 6,534 sq. ft. $117
2018-11-14 Single Family Colonial 6031 Destiny Park Court Katy, TX 77449 $182,900 1,870 sq. ft. 5,227 sq. ft. $98
2018-11-14 Single Family Ranch 24118 Bassett Hall Lane Katy, TX 77493 $175,000 2,100 sq. ft. 8,712 sq. ft. $83
2018-11-14 Single Family Traditional 6910 Enchanted Crest Court Katy, TX 77449 $192,000 2,267 sq. ft. 5,663 sq. ft. $85
2018-11-14 Single Family Traditional 1234 Ragsdale Lane Katy, TX 77494 $245,000 2,235 sq. ft. 7,841 sq. ft. $110
2018-11-14 Single Family Traditional 911 Shetland Lane Katy, TX 77493 $185,000 1,264 sq. ft. 8,712 sq. ft. $146
2018-11-14 Single Family Traditional 2402 Amber Springs Drive Katy, TX 77450 $359,900 3,402 sq. ft. 9,583 sq. ft. $106
2018-11-14 Single Family Traditional 22963 Indian Ridge Drive Katy, TX 77450 $229,000 2,388 sq. ft. 7,405 sq. ft. $96
2018-11-14 Single Family Traditional 531 Promenade Boulevard Katy, TX 77450 $180,000 1,764 sq. ft. 7,841 sq. ft. $102
2018-11-14 Single Family Traditional 21602 Misty Fall Lane Katy, TX 77449 $199,500 1,960 sq. ft. 6,098 sq. ft. $102
2018-11-14 Single Family Traditional 7302 Alder Springs Lane Katy, TX 77494 $589,900 4,707 sq. ft. 13,504 sq. ft. $125
2018-11-14 Single Family Traditional 25307 Walter Peak Ln Katy, TX 77494 $299,000 2,522 sq. ft. 8,276 sq. ft. $119
2018-11-14 Single Family Traditional 2130 Park Maple Katy, TX 77450 $227,000 1,849 sq. ft. 12,197 sq. ft. $123
2018-11-14 Single Family Traditional 9903 Hutton Park Drive Katy, TX 77494 $474,990 3,465 sq. ft. 9,583 sq. ft. $137
2018-11-14 Single Family Traditional 1607 Baldridge Lane Katy, TX 77494 $410,000 3,383 sq. ft. 10,890 sq. ft. $121
2018-11-14 Single Family Contemporary/Modern 1059 Flagmore Drive Katy, TX 77450 $337,000 3,264 sq. ft. 9,583 sq. ft. $103
2018-11-14 Single Family Ranch; Traditional 4035 Praire Landing Lane Katy, TX 77494 $296,760 2,268 sq. ft. $131
2018-11-14 Single Family Traditional 3111 Sachse Court Katy, TX 77449 $250,000 2,526 sq. ft. 9,583 sq. ft. $99
2018-11-14 Single Family Traditional 5026 Lord Crest Lane Katy, TX 77493 $226,130 2,080 sq. ft. 6,534 sq. ft. $109
2018-11-14 Single Family Traditional 810 Sierra Lake Drive Katy, TX 77450 $195,000 2,046 sq. ft. 6,970 sq. ft. $95
2018-11-14 Single Family Traditional 6403 Providence River Lane Katy, TX 77449 $507,597 3,907 sq. ft. $130
2018-11-14 Single Family Traditional 6523 Erlington Heights Lane Katy, TX 77449 $449,854 3,285 sq. ft. $137
2018-11-14 Single Family Traditional 22414 Caroline Cove Ln Katy, TX 77450 $324,900 3,023 sq. ft. 8,276 sq. ft. $107
2018-11-14 Single Family Traditional 6630 Barrington Creek Trace Katy, TX 77493 $264,990 2,186 sq. ft. $121
2018-11-14 Single Family Traditional 6715 Barrington Creek Trace Katy, TX 77493 $259,995 1,857 sq. ft. 6,098 sq. ft. $140
2018-11-14 Single Family Traditional 515 Dockside Terrace Lane Katy, TX 77494 $291,900 3,416 sq. ft. 7,405 sq. ft. $85
2018-11-14 Single Family Traditional 22219 Hammerhead Court Katy, TX 77449 $235,000 2,664 sq. ft. 5,663 sq. ft. $88
2018-11-14 Single Family Traditional 3227 Wren Valley Trail Katy, TX 77493 $229,900 2,337 sq. ft. 6,098 sq. ft. $98
2018-11-14 Single Family Traditional 23019 Tindarey Falls Lane Katy, TX 77449 $237,815 1,568 sq. ft. $152
2018-11-13 Single Family Traditional 5818 Horse Prairie Drive Katy, TX 77449 $184,000 1,837 sq. ft. 5,663 sq. ft. $100
2018-11-13 Single Family Contemporary/Modern; Ranch; Traditional 6723 Pioneer Trail Katy, TX 77493 $390,000 2,589 sq. ft. 7,841 sq. ft. $151
2018-11-13 Single Family Traditional 20006 Upland Creek Drive Katy, TX 77449 $204,000 2,025 sq. ft. 6,970 sq. ft. $101
2018-11-13 Single Family Traditional 3806 Briarlilly Park Circle Katy, TX 77493 $259,023 2,070 sq. ft. $125
2018-11-13 Single Family Traditional 1615 Palisade Green Drive Katy, TX 77493 $230,000 2,568 sq. ft. 6,970 sq. ft. $90
2018-11-13 Single Family Traditional 20311 Avery Point Drive Katy, TX 77449 $210,000 2,517 sq. ft. 6,534 sq. ft. $83
2018-11-13 Single Family Traditional 3134 Birchleaf Dr Katy, TX 77449 $189,900 2,243 sq. ft. 6,534 sq. ft. $85
2018-11-13 Single Family Traditional 3715 Lindenfield Drive Katy, TX 77449 $189,000 1,777 sq. ft. 6,098 sq. ft. $106
2018-11-13 Single Family Contemporary/Modern 3111 Brighton Sky Lane Katy, TX 77494 $990,000 5,231 sq. ft. 15,246 sq. ft. $189
2018-11-13 Single Family Traditional 3610 Brinton Trails Lane Katy, TX 77494 $305,000 2,212 sq. ft. 6,970 sq. ft. $138
2018-11-13 Single Family Traditional 24718 Cabin Line Lane Katy, TX 77494 $235,000 2,217 sq. ft. 8,276 sq. ft. $106
2018-11-13 Single Family Traditional 1027 Golden Nugget Court Katy, TX 77450 $160,000 1,220 sq. ft. 7,841 sq. ft. $131
2018-11-13 Single Family Traditional 26122 Arbor Rose Lane Katy, TX 77494 $410,000 4,195 sq. ft. 10,454 sq. ft. $98
2018-11-13 Single Family Traditional 28902 Powder Ridge Drive Katy, TX 77494 $429,900 2,860 sq. ft. $150
2018-11-13 Single Family Traditional 3835 Keetings Lagoon Katy, TX 77494 $302,015 1,904 sq. ft. $159
2018-11-13 Single Family Traditional 3831 Keetings Lagoon Katy, TX 77494 $308,345
2018-11-13 Single Family Traditional 2723 Sable Ridge Lane Katy, TX 77494 $239,500 2,333 sq. ft. 6,970 sq. ft. $103
2018-11-13 Single Family Traditional 25271 Laird Knoll Street Katy, TX 77493 $198,995 1,864 sq. ft. $107
2018-11-13 Single Family Ranch; Traditional 4031 Prairie Landing Katy, TX 77494 $291,535 2,446 sq. ft. $119
2018-11-13 Single Family Ranch 19622 River Pointe Lane Katy, TX 77449 $195,453 2,157 sq. ft. 5,663 sq. ft. $91
2018-11-13 Single Family Traditional 3706 Landon Park Dr Drive Katy, TX 77449 $209,999 2,139 sq. ft. 6,534 sq. ft. $98
2018-11-12 Single Family Traditional 5502 Nero Lake Drive Katy, TX 77449 $248,450 2,160 sq. ft. 5,663 sq. ft. $115
2018-11-12 Single Family Traditional 5514 Nero Lake Drive Katy, TX 77449 $242,950 2,434 sq. ft. 5,663 sq. ft. $100
2018-11-12 Single Family Traditional 5410 Penzance Court Katy, TX 77449 $207,797 2,456 sq. ft. 10,454 sq. ft. $85
2018-11-12 Single Family Traditional 23215 Warmstone Way Katy, TX 77494 $239,990 1,993 sq. ft. 7,841 sq. ft. $120
2018-11-12 Single Family Traditional 5322 Nero Lake Drive Katy, TX 77449 $255,450 2,921 sq. ft. $87
2018-11-12 Single Family Traditional 5326 Nero Lake Drive Katy, TX 77449 $242,950 2,434 sq. ft. 6,970 sq. ft. $100
2018-11-12 Single Family Traditional 5406 Nero Lake Drive Katy, TX 77449 $227,950 2,160 sq. ft. 5,663 sq. ft. $106
2018-11-12 Single Family Traditional 1319 Wellshire Drive Katy, TX 77494 $475,000 4,307 sq. ft. 13,939 sq. ft. $110
2018-11-12 Single Family Traditional 4618 Stackstone Lane Katy, TX 77450 $409,000 3,370 sq. ft. 8,712 sq. ft. $121
2018-11-12 Single Family Traditional 5514 Bayleys Court Katy, TX 77449 $232,950
2018-11-12 Single Family Traditional 906 Cross Hollow Lane Katy, TX 77494 $679,000 4,698 sq. ft. 11,761 sq. ft. $145
2018-11-12 Single Family Traditional 26222 Ginger Gables Lane Katy, TX 77494 $400,000 3,052 sq. ft. 7,841 sq. ft. $131
2018-11-12 Single Family Ranch 3019 Clancy Meadows Katy, TX 77494 $225,990 1,680 sq. ft. $135
2018-11-12 Single Family Ranch 3003 Lightles Manor Katy, TX 77494 $221,990 1,516 sq. ft. $146
2018-11-12 Single Family Ranch 3010 Clancy Meadows Katy, TX 77494 $221,990 1,566 sq. ft. $142
2018-11-12 Single Family Traditional 5038 Royal Amber Lane Katy, TX 77493 $214,990 2,080 sq. ft. 5,227 sq. ft. $103
2018-11-12 Single Family Traditional 20803 Grenoble Lane Katy, TX 77450 $190,000 2,368 sq. ft. 6,098 sq. ft. $80
2018-11-12 Single Family Traditional 3114 Seminole Peak Lane Katy, TX 77494 $500,000 2,908 sq. ft. 8,712 sq. ft. $172
2018-11-12 Single Family Traditional 6002 Lakebluff Court Katy, TX 77450 $332,000 2,762 sq. ft. 8,712 sq. ft. $120
2018-11-12 Single Family Ranch 3011 Reid Meadows Katy, TX 77494 $216,440 1,463 sq. ft. $148
2018-11-12 Single Family Traditional 22506 Holbrook Springs Court Katy, TX 77449 $219,900 1,938 sq. ft. 6,970 sq. ft. $113
2018-11-12 Single Family Traditional 21226 Park Bend Drive Katy, TX 77450 $199,900 2,194 sq. ft. 7,405 sq. ft. $91
2018-11-12 Single Family Traditional 24023 Eagle Sage Lane Katy, TX 77493 $258,900 2,588 sq. ft. 5,663 sq. ft. $100
2018-11-12 Single Family Other Style 1234 Maple Drive Katy, TX 77493 $212,000 1,979 sq. ft. 5,663 sq. ft. $107
2018-11-12 Single Family Ranch; Traditional 3719 Brighton Springs Lane Katy, TX 77449 $178,000 2,280 sq. ft. 5,663 sq. ft. $78
2018-11-12 Single Family Traditional 22515 Market Square Lane Katy, TX 77449 $178,000 1,647 sq. ft. 8,276 sq. ft. $108
2018-11-12 Single Family Traditional 19315 Rolling Sage Drive Katy, TX 77449 $169,000 1,786 sq. ft. 7,405 sq. ft. $95
2018-11-12 Single Family Traditional 3619 Brinton Trails Lane Katy, TX 77494 $304,900 2,782 sq. ft. 6,098 sq. ft. $110
2018-11-12 Single Family Traditional 24226 Shaw Perry Lane Katy, TX 77493 $260,000 3,630 sq. ft. 11,326 sq. ft. $72
2018-11-11 Single Family Traditional 502 Stream Mill Lane Katy, TX 77494 $199,900 1,939 sq. ft. 6,098 sq. ft. $103
2018-11-11 Single Family Traditional 6750 Pioneer Trail Katy, TX 77493 $355,000 2,770 sq. ft. 6,970 sq. ft. $128
2018-11-11 Single Family Traditional 20711 Cranfield Drive Katy, TX 77450 $299,900 3,273 sq. ft. 9,148 sq. ft. $92
2018-11-10 Single Family Traditional 2303 Fern Bend Lane Katy, TX 77494 $340,000 3,302 sq. ft. 11,761 sq. ft. $103
2018-11-10 Single Family Traditional 2714 Kestrel Trace Lane Katy, TX 77494 $385,000 4,015 sq. ft. 8,712 sq. ft. $96
2018-11-10 Single Family Traditional 6915 Setting Sun Katy, TX 77494 $289,500 2,257 sq. ft. 8,712 sq. ft. $128
2018-11-10 Single Family Contemporary/Modern 19727 Diamond Hills Lane Katy, TX 77449 $187,000 2,372 sq. ft. 6,534 sq. ft. $79
2018-11-10 Single Family Ranch; Traditional 28714 Forest Pass Katy, TX 77494 $273,990 2,268 sq. ft. $121
2018-11-10 Single Family Traditional 19806 Brisbane Meadows Drive Katy, TX 77449 $194,900 2,188 sq. ft. 5,227 sq. ft. $89
2018-11-10 Single Family Traditional 9615 Amethyst Arbor Lane Katy, TX 77494 $295,000 2,487 sq. ft. 6,534 sq. ft. $119
2018-11-10 Single Family Traditional 4706 Deermeadow Falls Lane Katy, TX 77494 $499,998 4,460 sq. ft. 9,148 sq. ft. $112
2018-11-09 Single Family Traditional 21019 Royal Villa Drive Katy, TX 77449 $175,000 1,803 sq. ft. 6,970 sq. ft. $97
2018-11-09 Single Family Traditional 28503 Firethorne Katy, TX 77494 $489,999 4,253 sq. ft. 16,117 sq. ft. $115
2018-11-09 Single Family Traditional 2119 Blue Water Bay Drive Katy, TX 77494 $399,900 3,561 sq. ft. 7,841 sq. ft. $112
2018-11-09 Single Family Traditional 25314 Greenwell Springs Lane Katy, TX 77494 $499,900 3,630 sq. ft. 10,454 sq. ft. $138
2018-11-09 Single Family Traditional 25902 Pear Blossom Ln Lane Katy, TX 77494 $359,000 3,040 sq. ft. 10,019 sq. ft. $118
2018-11-09 Single Family Traditional 22918 Strathmere Court Katy, TX 77450 $299,700 3,580 sq. ft. 10,890 sq. ft. $84
2018-11-09 Single Family Traditional 1134 Dominion Drive Katy, TX 77450 $290,000 2,567 sq. ft. 7,405 sq. ft. $113
2018-11-09 Single Family Traditional 2538 Llano Springs Drive Katy, TX 77494 $235,000 1,874 sq. ft. 6,534 sq. ft. $125
2018-11-09 Single Family Traditional 923 Red Rock Canyon Drive Katy, TX 77450 $199,960 1,625 sq. ft. 7,841 sq. ft. $123
2018-11-09 Single Family Traditional 6822 Autumn Flowers Drive Katy, TX 77449 $169,000 1,717 sq. ft. 8,712 sq. ft. $98
2018-11-09 Single Family Traditional 5102 Grand Vista Lane Katy, TX 77494 $599,000 4,582 sq. ft. 22,651 sq. ft. $131
2018-11-09 Single Family Traditional 2815 Manito Circle Katy, TX 77450 $359,900 3,047 sq. ft. 8,712 sq. ft. $118
2018-11-09 Single Family Traditional 1810 Abby Aldrich Lane Katy, TX 77449 $199,500 2,051 sq. ft. 10,019 sq. ft. $97
2018-11-09 Single Family Ranch; Traditional 24127 Silversmith Lane Katy, TX 77493 $169,000 1,240 sq. ft. 6,534 sq. ft. $136
2018-11-09 Single Family Traditional 4606 Clara Rose Lane Katy, TX 77449 $282,990 2,776 sq. ft. $102
2018-11-09 Single Family Traditional 2511 Marquette Trail Katy, TX 77494 $239,900 2,277 sq. ft. 6,098 sq. ft. $105
2018-11-09 Single Family Traditional 2803 Noble Grove Lane Katy, TX 77494 $215,000 2,730 sq. ft. 6,970 sq. ft. $79
2018-11-09 Single Family Traditional 5742 Savanna Pasture Road Katy, TX 77493 $211,830 1,824 sq. ft. $116
2018-11-09 Single Family Traditional 6318 Breezy Hollow Lane Katy, TX 77450 $305,000 2,495 sq. ft. 3,920 sq. ft. $122
2018-11-09 Single Family Traditional 29203 Bentford Manor Court Katy, TX 77494 $260,000 2,186 sq. ft. 6,534 sq. ft. $119
2018-11-09 Single Family Contemporary/Modern 3833 Eula Morgan Road Road Katy, TX 77493 $499,900 2,192 sq. ft. 87,120 sq. ft. $228
2018-11-09 Single Family Traditional 23231 Dewflower Drive Katy, TX 77494 $260,000 2,639 sq. ft. 7,405 sq. ft. $99
2018-11-09 Single Family Traditional 25527 Westbourne Drive Katy, TX 77494 $385,000 3,625 sq. ft. 7,405 sq. ft. $106
2018-11-09 Single Family Traditional 24503 Bay Hill Boulevard Katy, TX 77494 $475,000 4,368 sq. ft. 10,454 sq. ft. $109
2018-11-09 Single Family Traditional 22814 Willhanna Drive Katy, TX 77449 $195,000 2,479 sq. ft. 6,098 sq. ft. $79
2018-11-09 Single Family Traditional 2207 Fenton Rock Katy, TX 77494 $330,000 3,060 sq. ft. 9,148 sq. ft. $108
2018-11-08 Single Family Traditional 3810 Silver Bridge Lane Katy, TX 77449 $179,900 1,680 sq. ft. 5,227 sq. ft. $107
2018-11-08 Single Family Traditional 20107 Hardwidge Court Katy, TX 77450 $398,888 3,516 sq. ft. 11,326 sq. ft. $113
2018-11-08 Single Family Traditional 24506 Lakecrest Town Drive Katy, TX 77493 $225,000 2,573 sq. ft. 4,792 sq. ft. $87
2018-11-08 Single Family Contemporary/Modern; Mediterranean 5912 T Street Katy, TX 77493 $739,900 4,888 sq. ft. 10,890 sq. ft. $151
2018-11-08 Single Family Traditional 6911 Morning Sky Katy, TX 77494 $289,900 2,476 sq. ft. 7,405 sq. ft. $117
2018-11-08 Single Family Traditional 6614 Barrington Creek Trace Katy, TX 77493 $272,995 1,857 sq. ft. 6,970 sq. ft. $147
2018-11-08 Single Family Ranch 1921 Myrna Lane Katy, TX 77493 $177,900 1,487 sq. ft. 6,534 sq. ft. $120
2018-11-08 Single Family Traditional 6815 Drewlaine Fields Lane Katy, TX 77449 $145,000 1,685 sq. ft. 6,970 sq. ft. $86
2018-11-08 Single Family Traditional 20218 Brondesbury Drive Katy, TX 77450 $385,000 3,492 sq. ft. 7,841 sq. ft. $110
2018-11-08 Single Family Traditional 5335 Barleycorn Lane Katy, TX 77494 $279,900 2,684 sq. ft. 6,098 sq. ft. $104
2018-11-08 Single Family Traditional 24519 Evangeline Springs Lane Katy, TX 77494 $279,000 2,607 sq. ft. 6,970 sq. ft. $107
2018-11-08 Single Family Traditional 3334 Trent Stone Lane Katy, TX 77449 $205,000 1,987 sq. ft. 6,534 sq. ft. $103
2018-11-08 Single Family Traditional 20810 Westfield Terrace Trail Katy, TX 77449 $244,995 2,844 sq. ft. $86
2018-11-08 Single Family Traditional 1911 Kelliwood Trails Drive Katy, TX 77450 $235,000 2,272 sq. ft. 7,405 sq. ft. $103
2018-11-08 Single Family Traditional 19419 Indian Grass Drive Katy, TX 77449 $165,000 1,422 sq. ft. 6,098 sq. ft. $116
2018-11-08 Single Family Traditional 26 Azure Lake Court Katy, TX 77494 $549,999 4,208 sq. ft. 9,583 sq. ft. $131
2018-11-08 Single Family Traditional 1403 Rippling Tide Lane Katy, TX 77494 $605,902 4,199 sq. ft. $144
2018-11-08 Single Family Traditional 3302 Mystic Shadow Lane Katy, TX 77494 $540,000 4,339 sq. ft. 10,019 sq. ft. $124
2018-11-08 Single Family Ranch 22415 Caroline Cove Lane Katy, TX 77450 $314,900 2,855 sq. ft. 7,841 sq. ft. $110
2018-11-08 Single Family Traditional 2903 Verdant Spring Trail Katy, TX 77493 $299,000 3,232 sq. ft. $93
2018-11-08 Single Family Traditional 25722 Provender Place Katy, TX 77493 $199,990 1,515 sq. ft. $132
2018-11-08 Single Family Traditional 3307 Rumbling Rock Lane Katy, TX 77494 $525,000 4,060 sq. ft. 10,890 sq. ft. $129
2018-11-08 Single Family Traditional 2902 Gable Landing Lane Katy, TX 77494 $595,500 4,605 sq. ft. 9,148 sq. ft. $129
2018-11-08 Single Family Traditional 3834 Keatings Lagoon Court Katy, TX 77494 $306,664 2,211 sq. ft. $139
2018-11-08 Single Family Traditional 28511 Spiceberry Drive Katy, TX 77494 $335,000 3,178 sq. ft. 7,405 sq. ft. $105
2018-11-08 Single Family Traditional 6403 Crystal Forest Trail Trail Katy, TX 77493 $265,000 3,013 sq. ft. 9,583 sq. ft. $88
2018-11-08 Single Family Traditional 3314 Baden Oaks Court Katy, TX 77494 $299,900 2,458 sq. ft. 6,534 sq. ft. $122
2018-11-08 Single Family Traditional 1319 Crossfield Drive Katy, TX 77450 $255,000 1,925 sq. ft. 7,841 sq. ft. $132
2018-11-08 Single Family Traditional 3241 Snow Katy, TX 77493 $295,000 2,220 sq. ft. 23,087 sq. ft. $133
2018-11-08 Single Family Traditional 27123 Postwood Manor Court Katy, TX 77494 $249,900 2,048 sq. ft. 5,227 sq. ft. $122
2018-11-08 Single Family Traditional 2539 Pines Pointe Drive Katy, TX 77493 $238,970 2,140 sq. ft. $112
2018-11-08 Single Family Traditional 20606 Palm Rain Court Katy, TX 77449 $215,000 2,059 sq. ft. 9,583 sq. ft. $104
2018-11-08 Single Family Traditional 20934 Young Meadows Way Katy, TX 77449 $170,000 1,632 sq. ft. 4,356 sq. ft. $104
2018-11-08 Single Family Ranch 3720 Katy Hockley Road Katy, TX 77493 $365,000 1,620 sq. ft. 43,560 sq. ft. $225
2018-11-08 Single Family Ranch 5331 Thorngate Court Katy, TX 77494 $281,124 2,052 sq. ft. 5,663 sq. ft. $137
2018-11-08 Single Family Traditional 20047 Fort Stanton Drive Katy, TX 77449 $175,000 2,090 sq. ft. 6,098 sq. ft. $84
2018-11-07 Single Family Traditional 24610 Ballad Drive Katy, TX 77493 $280,000 2,241 sq. ft. 10,454 sq. ft. $125
2018-11-07 Single Family Traditional 27107 Canyon Dew Lane Katy, TX 77494 $595,000 4,612 sq. ft. 10,890 sq. ft. $129
2018-11-07 Single Family Traditional 23726 Daintree Place Katy, TX 77493 $330,000 2,743 sq. ft. 7,841 sq. ft. $120
2018-11-07 Single Family Traditional 1531 Park Briar Drive Katy, TX 77450 $265,000 2,461 sq. ft. 9,583 sq. ft. $108
2018-11-07 Single Family Traditional 24458 Schivener House Lane Katy, TX 77493 $248,900 2,047 sq. ft. 7,405 sq. ft. $122
2018-11-07 Single Family Mediterranean 2715 Silverhorn Drive Katy, TX 77450 $2,150,000 10,290 sq. ft. 47,916 sq. ft. $209
2018-11-07 Single Family Traditional 2303 Lawnflower Court Katy, TX 77494 $415,000 3,825 sq. ft. 13,939 sq. ft. $108
2018-11-07 Single Family Traditional 20110 Hardwidge Court Katy, TX 77450 $325,000 2,522 sq. ft. 7,405 sq. ft. $129
2018-11-07 Single Family Traditional 6806 Strathmore Place Court Katy, TX 77449 $155,000 1,196 sq. ft. 5,663 sq. ft. $130
2018-11-07 Single Family Traditional 6718 Cottonwood Crest Lane Katy, TX 77493 $418,900 2,713 sq. ft. $154
2018-11-07 Single Family Traditional 25123 Dunbrook Springs Lane Katy, TX 77494 $362,950 2,717 sq. ft. 7,405 sq. ft. $134
2018-11-07 Single Family Traditional 22535 Market Square Lane Katy, TX 77449 $155,000 1,300 sq. ft. 6,534 sq. ft. $119
2018-11-07 Single Family Contemporary/Modern; Mediterranean; Traditional 7914 Salta Verde Point Katy, TX 77494 $817,500 4,505 sq. ft. 11,761 sq. ft. $181
2018-11-07 Single Family Traditional 6822 Cottonwood Crest Lane Katy, TX 77493 $460,430 3,639 sq. ft. 11,326 sq. ft. $127
2018-11-07 Single Family Other Style 20647 Laurel Lock Drive Katy, TX 77450 $499,000 4,053 sq. ft. 10,454 sq. ft. $123
2018-11-07 Single Family Traditional 19730 Oakland Valley Drive Katy, TX 77449 $167,900 1,702 sq. ft. 6,970 sq. ft. $99
2018-11-07 Single Family Mediterranean 27129 Cheshire Edge Lane Katy, TX 77494 $654,804 4,728 sq. ft. 11,326 sq. ft. $138
2018-11-07 Single Family Traditional 9714 Summit Bend Lane Katy, TX 77494 $329,000 2,784 sq. ft. 6,970 sq. ft. $118
2018-11-07 Single Family Traditional 2910 Firewalk Trace Katy, TX 77494 $280,000 2,338 sq. ft. 8,712 sq. ft. $120
2018-11-07 Single Family Traditional 5326 Princeton Drive Katy, TX 77493 $240,000 2,246 sq. ft. 7,841 sq. ft. $107
2018-11-07 Single Family Traditional 18735 Reynolds Park Drive Katy, TX 77449 $138,000 1,560 sq. ft. 4,356 sq. ft. $88
2018-11-07 Single Family Traditional 20310 Lake Sherwood Drive Katy, TX 77450 $237,000 2,112 sq. ft. 6,970 sq. ft. $112
2018-11-07 Single Family Traditional 6441 Mountain Pines Lane Katy, TX 77449 $139,990 1,240 sq. ft. 3,049 sq. ft. $113
2018-11-07 Single Family Mediterranean 5139 Hawthorne Bend Drive Katy, TX 77494 $498,000 3,241 sq. ft. 9,583 sq. ft. $154
2018-11-07 Single Family Traditional 2506 Townhall Lane Katy, TX 77449 $195,000 2,090 sq. ft. 6,970 sq. ft. $93
2018-11-06 Single Family Traditional 2834 Rainflower Meadow Katy, TX 77494 $749,220 5,418 sq. ft. $138
2018-11-06 Single Family Contemporary/Modern 24934 Blue Mountain Park Lane Katy, TX 77493 $255,000 2,163 sq. ft. 6,098 sq. ft. $118
2018-11-06 Single Family Traditional 24406 Pepperrell Place Katy, TX 77493 $229,900 2,036 sq. ft. 6,098 sq. ft. $113
2018-11-06 Single Family Colonial 24307 Travis House Lane Katy, TX 77493 $245,000 2,589 sq. ft. 11,761 sq. ft. $95
2018-11-06 Single Family Traditional 23827 Scotsman Drive Katy, TX 77493 $235,000 2,192 sq. ft. 6,534 sq. ft. $107
2018-11-06 Single Family Traditional 1110 Tydeman Court Katy, TX 77494 $304,990 2,482 sq. ft. 0 sq. ft. $123
2018-11-06 Single Family Traditional 2206 Lashley Court Katy, TX 77450 $282,000 2,951 sq. ft. 10,890 sq. ft. $96
2018-11-06 Single Family Traditional 23602 Shadow Creek Court Katy, TX 77494 $315,000 3,151 sq. ft. 12,197 sq. ft. $100
2018-11-06 Single Family Contemporary/Modern; Traditional 22215 Fincastle Drive Katy, TX 77450 $259,000 2,521 sq. ft. 7,405 sq. ft. $103
2018-11-06 Single Family Traditional 3339 Quarry Place Lane Katy, TX 77493 $225,000 2,559 sq. ft. 7,405 sq. ft. $88
2018-11-06 Single Family Mediterranean 23914 Coastal Meadow Meadow Katy, TX 77494 $719,000 5,275 sq. ft. 15,246 sq. ft. $136
2018-11-06 Single Family Traditional 25906 Summer Savory Lane Katy, TX 77494 $425,000 3,758 sq. ft. 8,276 sq. ft. $113
2018-11-06 Single Family Traditional 21127 Park Brook Drive Katy, TX 77450 $321,000 3,599 sq. ft. 8,276 sq. ft. $89
2018-11-06 Single Family Other Style 5915 Y Street Katy, TX 77493 $224,990 1,608 sq. ft. 12,197 sq. ft. $140
2018-11-06 Single Family Traditional 25206 Hazel Ranch Drive Katy, TX 77494 $309,000 3,625 sq. ft. 5,227 sq. ft. $85
2018-11-06 Single Family Traditional 23323 Millcross Lane Katy, TX 77494 $360,000 3,149 sq. ft. 10,019 sq. ft. $114
2018-11-05 Single Family Traditional 25014 Florina Ranch Drive Katy, TX 77494 $398,800 4,443 sq. ft. 7,841 sq. ft. $90
2018-11-05 Single Family Traditional 3515 Raintree Village Drive Katy, TX 77449 $216,000 2,140 sq. ft. 8,712 sq. ft. $101
2018-11-05 Single Family Contemporary/Modern; Traditional 3203 Emerald Valley Drive Katy, TX 77494 $375,000 2,446 sq. ft. 13,939 sq. ft. $153
2018-11-05 Single Family Traditional 6314 Columbia Falls Lane Katy, TX 77450 $349,000 2,935 sq. ft. 7,841 sq. ft. $119
2018-11-05 Single Family Traditional 19606 Buckland Park Drive Katy, TX 77449 $162,000 4,792 sq. ft.
2018-11-05 Single Family Traditional 24018 Kingdom Isle Lane Katy, TX 77493 $290,000 2,454 sq. ft. 6,534 sq. ft. $118
2018-11-05 Single Family Traditional 6313 Deer Meadow Lane Katy, TX 77493 $325,000 3,155 sq. ft. 8,276 sq. ft. $103
2018-11-05 Single Family Ranch 25802 Westbourne Drive Katy, TX 77494 $275,000 2,280 sq. ft. 6,534 sq. ft. $121
2018-11-05 Single Family Traditional 23114 Verona Vista Drive Katy, TX 77493 $269,900 2,532 sq. ft. 6,534 sq. ft. $107
2018-11-05 Single Family Traditional 21831 Alta Peak Way Katy, TX 77449 $240,000 2,928 sq. ft. 6,098 sq. ft. $82
2018-11-05 Single Family Traditional 1414 Buffalo Woods Court Katy, TX 77494 $234,995 2,314 sq. ft. $102
2018-11-05 Single Family Traditional 20715 Footstep Path Katy, TX 77449 $275,600 3,145 sq. ft. $88
2018-11-05 Single Family Traditional 19406 Briarsedge Court Katy, TX 77449 $240,000 3,023 sq. ft. 10,454 sq. ft. $79
2018-11-05 Single Family Traditional 1319 Breezy Bend Drive Katy, TX 77494 $425,000 5,141 sq. ft. 10,454 sq. ft. $83
2018-11-05 Single Family Traditional 21939 Silverfield Park Lane Katy, TX 77449 $189,500 2,323 sq. ft. 6,534 sq. ft. $82
2018-11-04 Single Family Traditional 28042 Sugarside Glen Drive Katy, TX 77494 $419,000 3,757 sq. ft. 10,890 sq. ft. $112
2018-11-04 Single Family Traditional 20219 Black Canyon Drive Katy, TX 77450 $205,000 2,705 sq. ft. 7,405 sq. ft. $76
2018-11-04 Single Family Traditional 6130 Emberwood Falls Drive Katy, TX 77494 $430,000 3,376 sq. ft. 10,454 sq. ft. $127
2018-11-04 Single Family Traditional 4202 Cambry Park Katy, TX 77450 $330,000 2,780 sq. ft. 6,970 sq. ft. $119
2018-11-04 Single Family Traditional 914 Kentbury Court Katy, TX 77450 $269,900 2,296 sq. ft. 7,405 sq. ft. $118
2018-11-04 Single Family Traditional 6012 Drake Court Katy, TX 77493 $294,900 2,427 sq. ft. 9,583 sq. ft. $122
2018-11-04 Single Family Traditional 20502 Blue Beech Drive Katy, TX 77449 $161,500 1,526 sq. ft. 8,712 sq. ft. $106
2018-11-03 Single Family Traditional 935 Three Forks Drive Katy, TX 77450 $149,900 1,270 sq. ft. 5,663 sq. ft. $118
2018-11-03 Single Family Contemporary/Modern 18022 Poppy Trails Street Katy, TX 77449 $154,900 1,524 sq. ft. 6,534 sq. ft. $102
2018-11-03 Single Family Mediterranean 20922 Balmoral Glen Lane Katy, TX 77449 $229,000 2,325 sq. ft. 5,227 sq. ft. $98
2018-11-03 Single Family Traditional 25331 Clover Ranch Drive Katy, TX 77494 $195,000 1,459 sq. ft. 5,227 sq. ft. $134
2018-11-03 Single Family Traditional 27119 Barrington Lodge Lane Katy, TX 77494 $399,900 3,714 sq. ft. 9,148 sq. ft. $108
2018-11-03 Single Family Traditional 22434 Unicorns Horn Lane Katy, TX 77449 $245,000 2,328 sq. ft. 8,712 sq. ft. $105
2018-11-03 Single Family Traditional 6310 Hayman Drive Katy, TX 77449 $180,000 2,250 sq. ft. 4,792 sq. ft. $80
2018-11-03 Single Family Traditional 19430 Bristlestar Drive Katy, TX 77449 $168,000 1,811 sq. ft. 7,841 sq. ft. $93
2018-11-03 Single Family Traditional 5514 Cherish Trail Katy, TX 77494 $329,000 2,604 sq. ft. 8,276 sq. ft. $126
2018-11-03 Single Family Mediterranean 24902 Mist Lake Ct Katy, TX 77494 $1,250,000 5,500 sq. ft. 45,302 sq. ft. $227
2018-11-02 Single Family Traditional 22510 Ganado Creek Court Katy, TX 77449 $224,900 2,708 sq. ft. 6,970 sq. ft. $83
2018-11-02 Single Family Contemporary/Modern 2211 Oakwell Lane Katy, TX 77449 $249,333 2,722 sq. ft. 6,970 sq. ft. $92
2018-11-02 Single Family Traditional 26715 Valleyside Drive Katy, TX 77494 $489,500 4,188 sq. ft. 11,326 sq. ft. $117
2018-11-02 Single Family Contemporary/Modern 3807 Palmer Meadow Court Katy, TX 77494 $321,430 2,853 sq. ft. $113
2018-11-02 Single Family Traditional 3306 Tall Sycamore Trail Katy, TX 77493 $255,000 2,553 sq. ft. 6,098 sq. ft. $100
2018-11-02 Single Family Other Style 5306 Greenbrae Lane Katy, TX 77494 $240,000 1,611 sq. ft. 4,356 sq. ft. $149
2018-11-02 Single Family Traditional 24523 Hikers Bend Drive Katy, TX 77493 $235,000 2,667 sq. ft. 6,534 sq. ft. $88
2018-11-02 Single Family Traditional 306 Buckeye Drive Katy, TX 77450 $197,500 1,837 sq. ft. 10,454 sq. ft. $108
2018-11-02 Single Family Traditional 6907 Drewlaine Fields Lane Katy, TX 77449 $144,000 1,882 sq. ft. 6,970 sq. ft. $77
2018-11-02 Single Family Traditional 4706 Payton Chase Lane Katy, TX 77494 $479,900 4,412 sq. ft. 10,019 sq. ft. $109
2018-11-02 Single Family Traditional 24930 Garnet Shadow Lane Katy, TX 77494 $315,000 2,236 sq. ft. 6,534 sq. ft. $141
2018-11-02 Single Family Traditional 28711 Havenport Drive Katy, TX 77494 $330,000 2,860 sq. ft. 8,276 sq. ft. $115
2018-11-02 Single Family Traditional 23307 Gable Lodge Dr Katy, TX 77494 $295,000 2,491 sq. ft. 10,019 sq. ft. $118
2018-11-02 Single Family Traditional 1923 Pontius Drive Katy, TX 77493 $249,900 2,632 sq. ft. 5,663 sq. ft. $95
2018-11-02 Single Family Contemporary/Modern 21711 Spring Vine Lane Katy, TX 77450 $259,900 2,501 sq. ft. 3,920 sq. ft. $104
2018-11-02 Single Family Traditional 4807 Redwing Brook Trail Katy, TX 77449 $213,000 2,530 sq. ft. 6,970 sq. ft. $84
2018-11-02 Single Family Traditional 20139 Golden Mesa Drive Katy, TX 77449 $165,000 1,526 sq. ft. 4,356 sq. ft. $108
2018-11-02 Single Family Traditional 6130 Settlers Lake Circle Katy, TX 77449 $165,000 1,475 sq. ft. 2,614 sq. ft. $112
2018-11-02 Single Family Traditional 2518 Monarch Terrace Drive Katy, TX 77494 $447,840 3,732 sq. ft. 11,761 sq. ft. $120
2018-11-02 Single Family Traditional 1606 Tonkawa Trail Katy, TX 77493 $419,900 3,394 sq. ft. 7,841 sq. ft. $124
2018-11-02 Single Family Traditional 2327 Blue Jay Lane Katy, TX 77494 $264,900 1,964 sq. ft. 6,098 sq. ft. $135
2018-11-02 Single Family Traditional 919 Park Wind Drive Katy, TX 77450 $254,900 2,584 sq. ft. 13,504 sq. ft. $99
2018-11-02 Single Family Traditional 3819 Preston Cove Court Katy, TX 77494 $550,000 3,680 sq. ft. 12,197 sq. ft. $149
2018-11-02 Single Family Traditional 2718 Coastal Katy, TX 77493 $440,000 3,168 sq. ft. 8,276 sq. ft. $139
2018-11-02 Single Family Traditional 2302 Chelsea Ridge Court Katy, TX 77450 $385,990 3,826 sq. ft. 7,841 sq. ft. $101
2018-11-02 Single Family Traditional 5345 Kyla Circle Katy, TX 77493 $250,000 2,825 sq. ft. 8,276 sq. ft. $88
2018-11-02 Single Family Traditional 24506 Swallows Cove Lane Katy, TX 77494 $280,000 2,563 sq. ft. 7,405 sq. ft. $109
2018-11-02 Single Family Split Level; Traditional 5123 Juniper Walk Lane Katy, TX 77494 $229,000 1,894 sq. ft. 6,534 sq. ft. $121
2018-11-02 Single Family Traditional 6734 Misty Dale Drive Katy, TX 77449 $174,990 2,165 sq. ft. 5,227 sq. ft. $81
2018-11-01 Single Family Traditional 4606 Gardenlily Court Katy, TX 77494 $432,800 3,378 sq. ft. 12,197 sq. ft. $128
2018-11-01 Single Family Ranch 19227 Cypress Canyon Drive Katy, TX 77449 $108,000 1,021 sq. ft. 4,792 sq. ft. $106
2018-11-01 Single Family Traditional 24407 Falcon Point Drive Katy, TX 77494 $378,000 3,567 sq. ft. 6,551 sq. ft. $106
2018-11-01 Single Family Traditional 26635 Surrey Park Lane Katy, TX 77494 $275,000 2,607 sq. ft. 6,970 sq. ft. $105
2018-11-01 Single Family Traditional 22502 Deville Drive Katy, TX 77450 $219,900 2,521 sq. ft. 7,841 sq. ft. $87
2018-11-01 Single Family Contemporary/Modern 3402 Rainshore Drive Katy, TX 77449 $188,500 2,187 sq. ft. 5,227 sq. ft. $86
2018-11-01 Single Family Traditional 20310 Wild Plains Drive Katy, TX 77449 $177,000 1,904 sq. ft. 6,970 sq. ft. $93
2018-11-01 Single Family Traditional 27906 Pinpoint Crossing Drive Katy, TX 77494 $450,950 3,684 sq. ft. 12,632 sq. ft. $122
2018-11-01 Single Family Traditional 27902 Pinpoint Crossing Drive Katy, TX 77494 $445,950 3,348 sq. ft. 12,632 sq. ft. $133
2018-11-01 Single Family Traditional 20830 Cottage Cove Lane Katy, TX 77450 $322,500 2,998 sq. ft. 7,841 sq. ft. $108
2018-11-01 Single Family Traditional 22031 Westerpine Lane Katy, TX 77449 $205,000 2,284 sq. ft. 6,970 sq. ft. $90
2018-11-01 Single Family Traditional 6311 Ballina Meadows Court Katy, TX 77449 $162,000 1,808 sq. ft. 5,227 sq. ft. $90
2018-11-01 Single Family Traditional; Victorian 6537 Manorwood Drive Katy, TX 77493 $1,300,000 2,487 sq. ft. 151,153 sq. ft. $523
2018-11-01 Single Family Traditional 23807 Newport Bend Katy, TX 77494 $188,000 1,358 sq. ft. 5,227 sq. ft. $138
2018-11-01 Single Family Traditional 1827 Rice Mill Drive Katy, TX 77493 $619,900 4,968 sq. ft. 10,890 sq. ft. $125
2018-11-01 Single Family Traditional 5215 Lacey Oak Meadow Drive Katy, TX 77494 $409,700 3,292 sq. ft. 7,405 sq. ft. $124
2018-11-01 Single Family Traditional 4419 Calvet Forest Drive Katy, TX 77494 $374,990 2,553 sq. ft. 6,970 sq. ft. $147
2018-11-01 Single Family Traditional 9918 Red Pine Valley Trail Katy, TX 77494 $350,000 3,156 sq. ft. 6,534 sq. ft. $111
2018-11-01 Single Family Traditional 3210 Emerald Valley Drive Katy, TX 77494 $375,000 3,827 sq. ft. 9,583 sq. ft. $98
2018-11-01 Single Family Traditional 4619 Stolz Trail Katy, TX 77493 $269,900 2,702 sq. ft. 7,405 sq. ft. $100
2018-11-01 Single Family Traditional 4102 Barossa Valley Lane Katy, TX 77449 $208,000 2,762 sq. ft. 9,583 sq. ft. $75
2018-11-01 Single Family Mediterranean; Traditional 3207 Reston Landing Lane Katy, TX 77494 $539,900 4,562 sq. ft. 11,761 sq. ft. $118
2018-11-01 Single Family Traditional 1819 Sand Hollow Lane Katy, TX 77450 $570,000 6,021 sq. ft. 9,148 sq. ft. $95
2018-11-01 Single Family Traditional 5410 Blairmore Court Katy, TX 77450 $390,000 3,316 sq. ft. 10,019 sq. ft. $118
2018-11-01 Single Family Traditional 3746 Katy Hockley Road Katy, TX 77493 $349,700 2,235 sq. ft. 60,984 sq. ft. $156
2018-11-01 Single Family Victorian 1302 Misty Bend Drive Katy, TX 77494 $340,000 3,666 sq. ft. 11,326 sq. ft. $93
2018-11-01 Single Family Traditional 4602 Tuscany Lily Katy, TX 77493 $276,235 2,575 sq. ft. $107
2018-11-01 Single Family Contemporary/Modern 1355 Westgreen Boulevard Katy, TX 77450 $239,000 2,675 sq. ft. 7,405 sq. ft. $89
2018-11-01 Single Family Traditional 2007 Autumn Fern Drive Katy, TX 77450 $248,500 2,538 sq. ft. 5,227 sq. ft. $98
2018-11-01 Single Family Traditional 5014 Royal Regiment Lane Katy, TX 77493 $221,350 2,307 sq. ft. 5,663 sq. ft. $96
2018-11-01 Single Family Traditional 19622 Tigris Springs Circle Katy, TX 77449 $240,000 2,479 sq. ft. 14,375 sq. ft. $97
2018-11-01 Single Family Contemporary/Modern 1534 Valley Landing Drive Katy, TX 77450 $192,000 1,786 sq. ft. 6,534 sq. ft. $108
2018-11-01 Single Family Traditional 6314 Alicia Way Lane Katy, TX 77493 $279,990 3,149 sq. ft. 9,583 sq. ft. $89
2018-11-01 Single Family Traditional 20521 Verde Canyon Drive Katy, TX 77450 $289,000 3,016 sq. ft. 8,276 sq. ft. $96
2018-11-01 Single Family Traditional 20639 Prince Creek Drive Katy, TX 77450 $364,000 3,375 sq. ft. 7,405 sq. ft. $108
2018-11-01 Single Family Traditional 1714 Chateau Bend Court Katy, TX 77450 $389,900 3,824 sq. ft. 7,841 sq. ft. $102
2018-10-31 Single Family Traditional 24927 Azalea Ranch Drive Katy, TX 77494 $329,000 3,261 sq. ft. 8,276 sq. ft. $101
2018-10-31 Single Family Traditional 6426 Wolf Run Drive Katy, TX 77493 $310,000 2,145 sq. ft. 6,534 sq. ft. $145
2018-10-31 Single Family Traditional 2623 Country Lane Katy, TX 77493 $339,990 2,321 sq. ft. $146
2018-10-31 Single Family Traditional 20618 Rimini River Way Way Katy, TX 77449 $194,990 1,878 sq. ft. 5,663 sq. ft. $104
2018-10-31 Single Family Traditional 3338 Lantern Bay Lane Katy, TX 77449 $192,500 2,474 sq. ft. 8,712 sq. ft. $78
2018-10-31 Single Family Traditional 22702 Fossil Creek Circle Katy, TX 77450 $619,000 4,132 sq. ft. 11,761 sq. ft. $150
2018-10-31 Single Family Traditional 4702 Payton Chase Lane Katy, TX 77494 $557,550 4,982 sq. ft. 10,019 sq. ft. $112
2018-10-31 Single Family Contemporary/Modern 1314 Blackheath Court Katy, TX 77494 $345,000 3,106 sq. ft. 8,276 sq. ft. $111
2018-10-31 Single Family Traditional 21903 Stockbridge Lane Katy, TX 77449 $219,900 2,952 sq. ft. 8,276 sq. ft. $74
2018-10-31 Single Family Traditional 22619 Deville Drive Katy, TX 77450 $179,500 1,605 sq. ft. 7,841 sq. ft. $112
2018-10-31 Single Family Traditional 2103 Avebury Court Katy, TX 77450 $625,000 4,321 sq. ft. 13,068 sq. ft. $145
2018-10-31 Single Family Traditional 2310 Elmwood Trail Katy, TX 77493 $440,900 2,935 sq. ft. $150
2018-10-31 Single Family Traditional 6911 Red Oak Drive Katy, TX 77493 $492,900 3,395 sq. ft. 7,841 sq. ft. $145
2018-10-31 Single Family Ranch; Traditional 5527 Lacey Oak Meadow Drive Katy, TX 77494 $295,000 2,575 sq. ft. 10,890 sq. ft. $115
2018-10-31 Single Family Traditional 1410 Dominion Drive Katy, TX 77450 $273,000 2,360 sq. ft. 6,970 sq. ft. $116
2018-10-31 Single Family Traditional 21326 Park Brook Drive Katy, TX 77450 $224,900 2,184 sq. ft. 7,405 sq. ft. $103
2018-10-31 Single Family Traditional 27314 Brayden Hill Trail Katy, TX 77494 $536,995 3,958 sq. ft. $136
2018-10-31 Single Family Contemporary/Modern; Traditional 23306 Prairie Pebble Court Katy, TX 77494 $430,000 3,476 sq. ft. 8,276 sq. ft. $124
2018-10-31 Single Family Traditional 22618 Poppyfield Drive Katy, TX 77450 $190,000 1,605 sq. ft. 8,276 sq. ft. $118
2018-10-31 Single Family Traditional 2003 Wild Peregrine Circle Katy, TX 77494 $485,000 3,728 sq. ft. 10,890 sq. ft. $130
2018-10-31 Single Family Traditional 24211 Hamptonshire Lane Katy, TX 77494 $359,900 3,076 sq. ft. 9,583 sq. ft. $117
2018-10-31 Single Family Traditional 8111 Cabrillo Landing Court Katy, TX 77494 $524,999 2,950 sq. ft. 9,583 sq. ft. $178
2018-10-31 Single Family Traditional 5202 Windcrest Court Katy, TX 77450 $365,000 2,946 sq. ft. 9,583 sq. ft. $124
2018-10-31 Single Family Traditional 7802 Breezeway Bend Lane Katy, TX 77494 $730,000 5,411 sq. ft. 25,265 sq. ft. $135
2018-10-31 Single Family Traditional 3810 Keatings Lagoon Court Katy, TX 77494 $295,229 1,904 sq. ft. $155
2018-10-30 Single Family Traditional 4023 Stilton Lake Lane Katy, TX 77494 $469,900 3,444 sq. ft. 9,148 sq. ft. $136
2018-10-30 Single Family Traditional 3719 Kellys Falls Lane Katy, TX 77494 $305,435 1,904 sq. ft. $160
2018-10-30 Single Family Traditional 10015 Cinco Ridge Drive Katy, TX 77494 $515,000 4,072 sq. ft. 10,454 sq. ft. $126
2018-10-30 Single Family Traditional 2726 Brighton Willow Way Katy, TX 77494 $405,995 2,986 sq. ft. 6,098 sq. ft. $136
2018-10-30 Single Family Traditional 24706 Bent Sage Court Katy, TX 77494 $364,900 2,663 sq. ft. 7,405 sq. ft. $137
2018-10-30 Single Family Traditional 21527 Dalton Spring Lane Katy, TX 77449 $225,000 2,912 sq. ft. 7,841 sq. ft. $77
2018-10-30 Single Family Traditional 2419 Anthony Hay Lane Katy, TX 77449 $148,500 1,491 sq. ft. 6,534 sq. ft. $100
2018-10-30 Single Family Traditional 24242 Asher Hollow Lane Katy, TX 77493 $260,995 2,494 sq. ft. 9,148 sq. ft. $105
2018-10-30 Single Family Traditional 24246 Asher Hollow Lane Katy, TX 77493 $208,995 1,463 sq. ft. $143
2018-10-30 Single Family Traditional 24250 Asher Hollow Lane Katy, TX 77493 $220,995 1,648 sq. ft. $134
2018-10-30 Single Family Traditional 5822 Laramie River Court Katy, TX 77449 $180,000 1,579 sq. ft. 6,098 sq. ft. $114
2018-10-30 Single Family Traditional 23222 Century Plant Drive Katy, TX 77494 $225,000 1,682 sq. ft. 6,534 sq. ft. $134
2018-10-30 Single Family Traditional 5330 Greenbrae Lane Katy, TX 77494 $235,000 1,611 sq. ft. 4,792 sq. ft. $146
2018-10-30 Single Family Traditional 6810 Pioneer Trail Katy, TX 77493 $369,644 2,382 sq. ft. 6,970 sq. ft. $155
2018-10-30 Single Family Traditional 4318 Vineyard Mdw Lane Katy, TX 77449 $199,999 2,568 sq. ft. 5,663 sq. ft. $78
2018-10-30 Single Family Mediterranean 27215 Cheshire Edge Lane Katy, TX 77494 $642,954 4,588 sq. ft. 13,068 sq. ft. $140
2018-10-29 Single Family Traditional 20935 Balmoral Glen Lane Katy, TX 77449 $182,000 1,752 sq. ft. 5,227 sq. ft. $104
2018-10-29 Single Family Traditional 18223 Dusty Terrace Lane Katy, TX 77449 $179,995 2,088 sq. ft. 5,663 sq. ft. $86
2018-10-29 Single Family Traditional 5531 Baron Ridge Lane Katy, TX 77494 $405,000 3,366 sq. ft. 15,682 sq. ft. $120
2018-10-29 Single Family Traditional 534 Ellingham Drive Katy, TX 77450 $305,000 2,535 sq. ft. 11,761 sq. ft. $120
2018-10-29 Single Family Traditional 6325 Fawnlake Dr Katy, TX 77493 $259,900 2,313 sq. ft. 7,841 sq. ft. $112
2018-10-29 Single Family Traditional 23907 Hackberry Creek Drive Katy, TX 77494 $230,000 1,908 sq. ft. 6,534 sq. ft. $121
2018-10-29 Single Family Traditional 23622 Legano Drive Katy, TX 77493 $225,000 1,864 sq. ft. 6,098 sq. ft. $121
2018-10-29 Single Family Traditional 19531 Aventine Plantation Drive Katy, TX 77449 $210,000 2,416 sq. ft. 5,663 sq. ft. $87
2018-10-29 Single Family Traditional 6206 Lone Prairie Way Katy, TX 77449 $160,000 1,596 sq. ft. 2,614 sq. ft. $100
2018-10-29 Single Family Traditional 1302 Irish Mist Court Katy, TX 77450 $250,000 2,433 sq. ft. 6,970 sq. ft. $103
2018-10-29 Single Family Ranch; Traditional 1511 Wickerhill Way Katy, TX 77494 $225,000 1,898 sq. ft. 7,405 sq. ft. $119
2018-10-29 Single Family Contemporary/Modern 20326 Ricewood Village Trail Katy, TX 77449 $189,900 2,009 sq. ft. 5,227 sq. ft. $95
2018-10-29 Single Family Traditional 6335 Hall Pond Court Katy, TX 77449 $140,000 1,083 sq. ft. 3,049 sq. ft. $129
2018-10-28 Single Family Traditional 20519 Park Pine Drive Katy, TX 77450 $274,990 2,403 sq. ft. 9,148 sq. ft. $114
2018-10-28 Single Family Ranch 20231 Warrington Drive Katy, TX 77450 $224,000 1,786 sq. ft. 8,276 sq. ft. $125
2018-10-28 Single Family Traditional 2614 Mcdonough Way Katy, TX 77494 $275,000 2,145 sq. ft. 7,405 sq. ft. $128
2018-10-28 Single Family Traditional 20330 Kingsland Boulevard Katy, TX 77450 $248,000 2,448 sq. ft. 9,583 sq. ft. $101
2018-10-28 Single Family Traditional 6515 Indiangrass Lane Katy, TX 77494 $840,000 5,194 sq. ft. 18,731 sq. ft. $162
2018-10-28 Single Family Traditional 22703 Bloomridge Circle Katy, TX 77450 $444,960 3,296 sq. ft. 9,583 sq. ft. $135
2018-10-28 Single Family Traditional 22634 Tullis Trail Court Katy, TX 77494 $359,500 2,636 sq. ft. 6,534 sq. ft. $136
2018-10-28 Single Family Traditional 1435 Lamplight Trail Drive Katy, TX 77450 $239,999 1,972 sq. ft. 7,405 sq. ft. $122
2018-10-28 Single Family Traditional 19919 Brandon Oaks Way Katy, TX 77449 $180,000 2,092 sq. ft. 8,712 sq. ft. $86
2018-10-27 Single Family Traditional 4523 Camden Brook Lane Katy, TX 77494 $389,900 3,612 sq. ft. 9,148 sq. ft. $108
2018-10-27 Single Family Traditional 23819 Clover Trail Katy, TX 77494 $270,000 2,469 sq. ft. 8,276 sq. ft. $109
2018-10-27 Single Family Contemporary/Modern 3047 View Valley Trail Katy, TX 77493 $219,999 2,196 sq. ft. 4,792 sq. ft. $100
2018-10-27 Single Family Traditional 6707 Settlers Village Drive Katy, TX 77449 $179,900 1,755 sq. ft. 15,246 sq. ft. $103
2018-10-27 Single Family Ranch; Traditional 5387 Lincoln Green Drive Katy, TX 77493 $159,900 1,526 sq. ft. 6,970 sq. ft. $105
2018-10-27 Single Family Traditional 2603 Yellowwood Court Katy, TX 77494 $335,000 2,878 sq. ft. 8,276 sq. ft. $116
2018-10-27 Single Family Traditional 21526 Santa Clara Drive Katy, TX 77450 $250,000 2,020 sq. ft. 6,098 sq. ft. $124
2018-10-26 Single Family Traditional 3814 Keatings Lagoon Court Katy, TX 77494 $297,310 1,931 sq. ft. $154
2018-10-26 Single Family Traditional 3256 Zareen Lane Katy, TX 77493 $245,000 2,823 sq. ft. 7,405 sq. ft. $87
2018-10-26 Single Family Traditional 23519 Fairway Valley Lane Katy, TX 77494 $530,000 4,044 sq. ft. 16,553 sq. ft. $131
2018-10-26 Single Family Traditional 23102 Tindarey Falls Lane Katy, TX 77449 $220,000 1,424 sq. ft. $154
2018-10-26 Single Family Traditional 23018 Tindarey Falls Lane Katy, TX 77449 $235,000 1,838 sq. ft. $128
2018-10-26 Single Family Traditional 4703 Huntwood Hills Lane Katy, TX 77494 $369,900 2,919 sq. ft. 8,712 sq. ft. $127
2018-10-26 Single Family Traditional 24502 Lakecrest Creek Drive Katy, TX 77493 $210,000 2,376 sq. ft. 5,663 sq. ft. $88
2018-10-26 Single Family Traditional 6838 Pioneer Trail Katy, TX 77493 $402,300 2,560 sq. ft. 6,970 sq. ft. $157
2018-10-26 Single Family Traditional 24319 Ivory Sunset Lane Katy, TX 77493 $280,120 2,498 sq. ft. 7,405 sq. ft. $112
2018-10-26 Single Family Traditional 4330 Foster Gardens Lane Katy, TX 77449 $200,000 2,016 sq. ft. 6,098 sq. ft. $99
2018-10-26 Single Family Traditional 20711 Sandy Bay Lane Katy, TX 77449 $189,000 2,128 sq. ft. 6,098 sq. ft. $89
2018-10-26 Single Family Traditional 3423 Brinton Trails Lane Katy, TX 77494 $300,000 2,638 sq. ft. 8,276 sq. ft. $114
2018-10-26 Single Family Traditional 4103 Meadowlark Creek Court Katy, TX 77493 $250,995 1,857 sq. ft. 15,246 sq. ft. $135
2018-10-26 Single Family Traditional 4111 Meadowlark Creek Court Katy, TX 77493 $266,995 2,585 sq. ft. 5,663 sq. ft. $103
2018-10-26 Single Family Traditional 4131 Meadowlark Creek Court Katy, TX 77493 $252,995 2,585 sq. ft. 8,276 sq. ft. $98
2018-10-26 Single Family Traditional 24255 Asher Hollow Lane Katy, TX 77493 $260,995 2,494 sq. ft. 9,148 sq. ft. $105
2018-10-26 Single Family Traditional 5326 Baron Trace Lane Katy, TX 77494 $228,000 1,561 sq. ft. 5,227 sq. ft. $146
2018-10-26 Single Family Traditional 4123 Meadowlark Creek Court Katy, TX 77493 $218,995 1,648 sq. ft. 5,663 sq. ft. $133
2018-10-26 Single Family Traditional 4115 Meadowlark Creek Court Katy, TX 77493 $233,995 1,857 sq. ft. 5,663 sq. ft. $126
2018-10-26 Single Family Traditional 6227 Piedra Negras Court Katy, TX 77450 $239,000 2,036 sq. ft. 6,534 sq. ft. $117
2018-10-26 Single Family Traditional 4211 Stilton Lake Lane Katy, TX 77494 $450,000 3,062 sq. ft. 10,454 sq. ft. $147